createdAt,value
2019-02-25T00:02:25.204Z,1.75
2019-02-25T00:04:53.960Z,1.90
2019-02-25T00:07:22.487Z,2.00
2019-02-25T00:09:50.696Z,1.70
2019-02-25T00:12:18.927Z,1.95
2019-02-25T00:14:47.307Z,2.20
2019-02-25T00:17:15.524Z,1.80
2019-02-25T00:19:43.741Z,1.72
2019-02-25T00:22:11.969Z,1.82
2019-02-25T00:24:40.509Z,1.85
2019-02-25T00:27:08.737Z,1.95
2019-02-25T00:29:36.952Z,2.15
2019-02-25T00:32:05.180Z,2.05
2019-02-25T00:34:33.664Z,1.82
2019-02-25T00:37:01.971Z,2.20
2019-02-25T00:39:30.189Z,1.92
2019-02-25T00:41:58.736Z,1.62
2019-02-25T00:44:26.968Z,2.05
2019-02-25T00:46:55.183Z,1.90
2019-02-25T00:49:23.418Z,2.77
2019-02-25T00:51:51.900Z,3.35
2019-02-25T00:54:20.120Z,3.10
2019-02-25T00:56:48.336Z,2.90
2019-02-25T00:59:16.561Z,2.98
2019-02-25T01:01:44.781Z,3.20
2019-02-25T01:04:13.004Z,2.95
2019-02-25T01:06:41.525Z,2.60
2019-02-25T01:09:09.751Z,2.80
2019-02-25T01:11:37.967Z,2.83
2019-02-25T01:14:06.196Z,2.65
2019-02-25T01:16:34.412Z,2.75
2019-02-25T01:19:02.640Z,2.90
2019-02-25T01:21:30.853Z,2.98
2019-02-25T01:23:59.083Z,3.20
2019-02-25T01:26:27.297Z,3.20
2019-02-25T01:28:55.523Z,3.00
2019-02-25T01:31:23.735Z,3.45
2019-02-25T01:33:51.969Z,2.80
2019-02-25T01:36:20.181Z,3.33
2019-02-25T01:38:48.408Z,3.33
2019-02-25T01:41:16.629Z,3.27
2019-02-25T01:43:45.145Z,3.20
2019-02-25T01:46:13.364Z,3.25
2019-02-25T01:48:41.588Z,3.42
2019-02-25T01:51:10.113Z,3.22
2019-02-25T01:53:38.336Z,3.72
2019-02-25T01:56:06.555Z,3.52
2019-02-25T01:58:34.782Z,3.92
2019-02-25T02:01:02.997Z,3.67
2019-02-25T02:03:31.224Z,3.77
2019-02-25T02:05:59.749Z,3.70
2019-02-25T02:08:27.979Z,4.15
2019-02-25T02:10:56.192Z,3.55
2019-02-25T02:13:24.720Z,3.22
2019-02-25T02:15:53.221Z,4.08
2019-02-25T02:18:21.535Z,3.47
2019-02-25T02:20:49.752Z,3.35
2019-02-25T02:23:17.984Z,3.42
2019-02-25T02:25:46.196Z,3.90
2019-02-25T02:28:14.425Z,3.55
2019-02-25T02:30:42.640Z,4.22
2019-02-25T02:33:11.138Z,4.25
2019-02-25T02:35:39.359Z,4.15
2019-02-25T02:38:07.581Z,3.70
2019-02-25T02:40:36.101Z,3.60
2019-02-25T02:43:04.596Z,3.50
2019-02-25T02:45:38.479Z,4.17
2019-02-25T02:48:16.116Z,3.65
2019-02-25T02:50:44.347Z,4.05
2019-02-25T02:53:12.630Z,3.92
2019-02-25T02:55:41.206Z,3.77
2019-02-25T02:58:09.412Z,3.33
2019-02-25T03:00:37.986Z,3.77
2019-02-25T03:03:06.434Z,3.80
2019-02-25T03:05:34.657Z,3.02
2019-02-25T03:08:03.164Z,3.52
2019-02-25T03:10:31.464Z,3.12
2019-02-25T03:12:59.711Z,3.87
2019-02-25T03:15:27.916Z,3.22
2019-02-25T03:17:56.221Z,3.67
2019-02-25T03:20:24.480Z,3.85
2019-02-25T03:22:52.702Z,3.52
2019-02-25T03:25:33.471Z,3.80
2019-02-25T03:28:01.680Z,3.50
2019-02-25T03:30:29.909Z,3.50
2019-02-25T03:32:58.126Z,3.42
2019-02-25T03:35:26.624Z,3.22
2019-02-25T03:37:54.841Z,2.95
2019-02-25T03:40:23.915Z,3.47
2019-02-25T03:42:52.124Z,3.40
2019-02-25T03:45:20.624Z,3.30
2019-02-25T03:47:48.837Z,3.20
2019-02-25T03:50:17.278Z,3.30
2019-02-25T03:52:45.554Z,3.33
2019-02-25T03:55:21.393Z,3.35
2019-02-25T03:57:49.965Z,3.27
2019-02-25T04:00:21.501Z,3.00
2019-02-25T04:02:50.596Z,3.08
2019-02-25T04:05:19.208Z,2.87
2019-02-25T04:07:47.425Z,3.05
2019-02-25T04:10:16.088Z,3.10
2019-02-25T04:12:44.599Z,3.17
2019-02-25T04:15:19.073Z,3.12
2019-02-25T04:17:47.617Z,3.12
2019-02-25T04:20:16.892Z,3.20
2019-02-25T04:22:45.115Z,2.75
2019-02-25T04:25:13.361Z,3.58
2019-02-25T04:27:41.628Z,3.47
2019-02-25T04:30:12.398Z,3.05
2019-02-25T04:32:40.613Z,2.92
2019-02-25T04:35:09.971Z,3.30
2019-02-25T04:37:38.225Z,3.40
2019-02-25T04:40:12.254Z,3.05
2019-02-25T04:42:40.748Z,3.60
2019-02-25T04:45:12.082Z,3.40
2019-02-25T04:47:40.302Z,3.27
2019-02-25T04:50:10.035Z,3.95
2019-02-25T04:52:38.303Z,4.08
2019-02-25T04:55:08.479Z,4.20
2019-02-25T04:57:36.688Z,4.33
2019-02-25T05:00:08.236Z,4.50
2019-02-25T05:02:36.468Z,3.72
2019-02-25T05:05:05.196Z,4.67
2019-02-25T05:07:33.405Z,4.12
2019-02-25T05:10:01.889Z,4.03
2019-02-25T05:12:30.090Z,4.65
2019-02-25T05:14:58.309Z,4.70
2019-02-25T05:17:26.845Z,3.95
2019-02-25T05:19:55.340Z,7.47
2019-02-25T05:22:23.568Z,4.50
2019-02-25T05:24:51.794Z,3.72
2019-02-25T05:27:20.045Z,4.05
2019-02-25T05:29:48.317Z,4.58
2019-02-25T05:32:16.564Z,4.20
2019-02-25T05:34:44.855Z,4.35
2019-02-25T05:37:13.133Z,3.75
2019-02-25T05:39:41.341Z,4.30
2019-02-25T05:42:09.565Z,4.08
2019-02-25T05:44:37.777Z,3.98
2019-02-25T05:47:07.607Z,3.98
2019-02-25T05:49:36.145Z,3.87
2019-02-25T05:52:04.379Z,3.60
2019-02-25T05:54:32.595Z,4.00
2019-02-25T05:57:00.821Z,3.67
2019-02-25T05:59:29.307Z,3.90
2019-02-25T06:01:57.540Z,4.08
2019-02-25T06:04:25.758Z,3.90
2019-02-25T06:06:53.986Z,4.03
2019-02-25T06:09:22.197Z,3.62
2019-02-25T06:11:50.426Z,3.85
2019-02-25T06:14:18.636Z,3.87
2019-02-25T06:16:47.132Z,4.17
2019-02-25T06:19:15.341Z,3.22
2019-02-25T06:21:43.568Z,4.22
2019-02-25T06:24:11.798Z,4.00
2019-02-25T06:26:40.027Z,4.00
2019-02-25T06:29:08.242Z,4.08
2019-02-25T06:31:36.480Z,4.80
2019-02-25T06:34:04.942Z,3.80
2019-02-25T06:36:33.173Z,3.55
2019-02-25T06:39:01.389Z,3.72
2019-02-25T06:41:29.617Z,3.52
2019-02-25T06:43:57.836Z,3.87
2019-02-25T06:46:26.385Z,4.12
2019-02-25T06:48:54.599Z,4.10
2019-02-25T06:51:22.896Z,4.00
2019-02-25T06:53:51.490Z,4.17
2019-02-25T06:56:19.755Z,4.53
2019-02-25T06:58:48.248Z,4.20
2019-02-25T07:01:16.467Z,4.80
2019-02-25T07:03:46.327Z,4.35
2019-02-25T07:06:27.924Z,13.95
2019-02-25T07:08:57.797Z,7.05
2019-02-25T07:11:27.664Z,6.22
2019-02-25T07:14:03.784Z,5.65
2019-02-25T07:16:33.918Z,5.55
2019-02-25T07:19:03.780Z,4.90
2019-02-25T07:21:49.875Z,4.75
2019-02-25T07:24:19.764Z,5.30
2019-02-25T07:26:52.676Z,5.20
2019-02-25T07:29:25.537Z,4.80
2019-02-25T07:31:55.402Z,5.08
2019-02-25T07:34:28.388Z,5.28
2019-02-25T07:37:09.964Z,5.75
2019-02-25T07:39:39.825Z,5.78
2019-02-25T07:42:16.101Z,5.47
2019-02-25T07:44:48.904Z,4.90
2019-02-25T07:47:24.790Z,5.05
2019-02-25T07:49:54.632Z,4.70
2019-02-25T07:52:30.516Z,5.15
2019-02-25T07:55:06.180Z,4.97
2019-02-25T07:57:36.040Z,5.00
2019-02-25T08:00:07.232Z,5.25
2019-02-25T08:02:46.142Z,4.67
2019-02-25T08:05:18.976Z,5.05
2019-02-25T08:07:57.857Z,3.95
2019-02-25T08:10:30.408Z,4.78
2019-02-25T08:13:00.603Z,4.37
2019-02-25T08:15:30.732Z,4.47
2019-02-25T08:18:03.492Z,4.33
2019-02-25T08:20:42.132Z,4.97
2019-02-25T08:23:21.251Z,5.10
2019-02-25T08:26:00.566Z,4.42
2019-02-25T08:28:36.657Z,4.75
2019-02-25T08:31:18.490Z,4.62
2019-02-25T08:33:55.511Z,4.83
2019-02-25T08:36:49.076Z,4.70
2019-02-25T08:39:34.859Z,4.45
2019-02-25T08:42:07.558Z,4.70
2019-02-25T08:44:37.752Z,4.45
2019-02-25T08:47:16.583Z,4.93
2019-02-25T08:49:46.716Z,4.83
2019-02-25T08:52:14.944Z,5.83
2019-02-25T08:54:43.517Z,4.90
2019-02-25T08:57:11.749Z,4.97
2019-02-25T08:59:40.285Z,5.28
2019-02-25T09:02:08.512Z,5.22
2019-02-25T09:04:36.728Z,5.05
2019-02-25T09:07:04.960Z,5.53
2019-02-25T09:09:33.181Z,4.80
2019-02-25T09:12:01.403Z,4.95
2019-02-25T09:14:29.647Z,5.28
2019-02-25T09:16:57.869Z,5.05
2019-02-25T09:19:26.101Z,4.72
2019-02-25T09:21:54.719Z,5.05
2019-02-25T09:24:22.956Z,5.12
2019-02-25T09:26:51.241Z,5.53
2019-02-25T09:29:19.582Z,5.35
2019-02-25T09:31:47.807Z,5.30
2019-02-25T09:34:16.340Z,6.03
2019-02-25T09:36:44.556Z,5.45
2019-02-25T09:39:13.113Z,5.42
2019-02-25T09:41:41.336Z,5.53
2019-02-25T09:44:09.567Z,5.78
2019-02-25T09:46:37.857Z,5.17
2019-02-25T09:49:06.092Z,5.50
2019-02-25T09:51:34.312Z,5.47
2019-02-25T09:54:02.551Z,5.20
2019-02-25T09:56:31.041Z,5.40
2019-02-25T09:58:59.277Z,5.17
2019-02-25T10:01:27.510Z,5.20
2019-02-25T10:03:55.729Z,5.12
2019-02-25T10:06:23.953Z,5.85
2019-02-25T10:08:52.490Z,4.50
2019-02-25T10:11:20.949Z,4.37
2019-02-25T10:13:49.186Z,4.00
2019-02-25T10:16:17.404Z,4.33
2019-02-25T10:18:45.644Z,4.60
2019-02-25T10:21:13.873Z,3.92
2019-02-25T10:23:42.422Z,3.70
2019-02-25T10:26:10.920Z,4.05
2019-02-25T10:28:39.155Z,3.92
2019-02-25T10:31:07.373Z,3.42
2019-02-25T10:33:35.608Z,3.20
2019-02-25T10:36:03.825Z,3.20
2019-02-25T10:38:32.059Z,3.00
2019-02-25T10:41:00.551Z,3.35
2019-02-25T10:43:29.682Z,2.72
2019-02-25T10:45:58.995Z,2.50
2019-02-25T10:48:27.568Z,3.50
2019-02-25T10:50:56.430Z,3.25
2019-02-25T10:53:25.070Z,2.90
2019-02-25T10:55:59.172Z,2.27
2019-02-25T10:58:28.995Z,2.85
2019-02-25T11:00:57.636Z,2.55
2019-02-25T11:03:26.217Z,2.33
2019-02-25T11:05:56.212Z,3.10
2019-02-25T11:08:24.580Z,2.72
2019-02-25T11:10:54.951Z,2.60
2019-02-25T11:13:25.408Z,2.42
2019-02-25T11:15:53.533Z,2.72
2019-02-25T11:18:23.921Z,2.37
2019-02-25T11:20:52.016Z,2.60
2019-02-25T11:23:21.641Z,2.58
2019-02-25T11:25:51.484Z,2.60
2019-02-25T11:28:25.611Z,2.37
2019-02-25T11:30:51.958Z,2.67
2019-02-25T11:33:22.728Z,2.80
2019-02-25T11:35:50.777Z,2.40
2019-02-25T11:38:19.088Z,3.08
2019-02-25T11:40:47.309Z,2.50
2019-02-25T11:43:16.676Z,2.92
2019-02-25T11:45:45.560Z,2.47
2019-02-25T11:48:13.777Z,2.67
2019-02-25T11:50:42.015Z,2.55
2019-02-25T11:53:10.236Z,3.08
2019-02-25T11:55:38.478Z,2.90
2019-02-25T11:58:06.704Z,2.70
2019-02-25T12:00:34.938Z,2.60
2019-02-25T12:03:03.480Z,2.92
2019-02-25T12:05:31.716Z,2.77
2019-02-25T12:08:00.264Z,2.58
2019-02-25T12:10:28.492Z,1.92
2019-02-25T12:12:57.054Z,2.30
2019-02-25T12:15:25.540Z,2.62
2019-02-25T12:17:53.765Z,2.37
2019-02-25T12:20:22.053Z,2.30
2019-02-25T12:22:50.288Z,2.30
2019-02-25T12:25:23.000Z,2.40
2019-02-25T12:27:51.225Z,2.62
2019-02-25T12:30:21.524Z,2.58
2019-02-25T12:32:49.834Z,2.33
2019-02-25T12:35:18.417Z,2.70
2019-02-25T12:37:46.942Z,2.15
2019-02-25T12:40:16.524Z,2.65
2019-02-25T12:42:44.748Z,2.55
2019-02-25T12:45:14.131Z,2.62
2019-02-25T12:47:42.345Z,2.77
2019-02-25T12:50:15.517Z,2.60
2019-02-25T12:52:43.789Z,2.35
2019-02-25T12:55:14.224Z,2.60
2019-02-25T12:57:42.447Z,2.30
2019-02-25T13:00:13.885Z,2.33
2019-02-25T13:02:42.108Z,2.50
2019-02-25T13:05:12.792Z,2.20
2019-02-25T13:07:41.076Z,2.02
2019-02-25T13:10:11.993Z,2.12
2019-02-25T13:12:40.204Z,2.20
2019-02-25T13:15:19.879Z,2.15
2019-02-25T13:17:48.160Z,2.02
2019-02-25T13:20:16.698Z,2.15
2019-02-25T13:22:45.189Z,1.98
2019-02-25T13:25:22.900Z,2.15
2019-02-25T13:27:52.017Z,2.10
2019-02-25T13:30:21.082Z,2.27
2019-02-25T13:32:49.296Z,2.45
2019-02-25T13:35:17.530Z,2.20
2019-02-25T13:37:46.088Z,2.10
2019-02-25T13:40:16.634Z,1.90
2019-02-25T13:42:44.967Z,1.95
2019-02-25T13:45:15.989Z,1.82
2019-02-25T13:47:44.580Z,1.85
2019-02-25T13:50:16.482Z,1.80
2019-02-25T13:52:48.421Z,1.85
2019-02-25T13:55:19.637Z,1.98
2019-02-25T13:57:47.860Z,1.82
2019-02-25T14:00:21.352Z,1.80
2019-02-25T14:02:49.681Z,1.55
2019-02-25T14:05:17.987Z,1.90
2019-02-25T14:07:46.523Z,1.98
2019-02-25T14:10:15.893Z,1.80
2019-02-25T14:12:44.108Z,1.50
2019-02-25T14:15:15.051Z,2.15
2019-02-25T14:17:43.268Z,1.55
2019-02-25T14:20:13.740Z,1.60
2019-02-25T14:22:41.960Z,1.72
2019-02-25T14:25:12.614Z,2.10
2019-02-25T14:27:40.900Z,1.50
2019-02-25T14:30:15.045Z,3.20
2019-02-25T14:32:43.484Z,1.85
2019-02-25T14:35:11.784Z,2.45
2019-02-25T14:37:40.051Z,2.17
2019-02-25T14:40:16.693Z,2.30
2019-02-25T14:42:46.887Z,1.80
2019-02-25T14:45:19.667Z,1.92
2019-02-25T14:47:46.840Z,2.33
2019-02-25T14:50:22.565Z,1.80
2019-02-25T14:52:50.800Z,1.80
2019-02-25T14:55:20.045Z,2.02
2019-02-25T14:57:48.609Z,1.75
2019-02-25T15:00:28.869Z,1.20
2019-02-25T15:02:56.720Z,1.30
2019-02-25T15:05:25.267Z,1.20
2019-02-25T15:07:53.545Z,1.50
2019-02-25T15:10:26.728Z,1.22
2019-02-25T15:12:56.485Z,1.17
2019-02-25T15:15:23.207Z,1.10
2019-02-25T15:17:52.768Z,1.02
2019-02-25T15:20:23.423Z,1.00
2019-02-25T15:22:52.008Z,1.20
2019-02-25T15:25:20.943Z,1.00
2019-02-25T15:27:49.628Z,0.78
2019-02-25T15:30:25.586Z,0.98
2019-02-25T15:32:56.995Z,0.90
2019-02-25T15:35:26.524Z,1.15
2019-02-25T15:37:55.213Z,1.17
2019-02-25T15:40:25.100Z,0.93
2019-02-25T15:43:15.110Z,1.12
2019-02-25T15:45:42.708Z,2.33
2019-02-25T15:48:14.105Z,1.05
2019-02-25T15:50:44.091Z,1.20
2019-02-25T15:53:15.757Z,2.10
2019-02-25T15:55:42.449Z,2.17
2019-02-25T15:58:11.446Z,2.00
2019-02-25T16:00:39.934Z,2.40
2019-02-25T16:03:09.095Z,1.50
2019-02-25T16:05:38.924Z,1.98
2019-02-25T16:08:07.303Z,1.67
2019-02-25T16:10:35.569Z,2.17
2019-02-25T16:13:05.959Z,1.02
2019-02-25T16:15:34.185Z,1.17
2019-02-25T16:18:02.683Z,1.10
2019-02-25T16:20:32.503Z,0.93
2019-02-25T16:23:02.788Z,1.10
2019-02-25T16:25:32.240Z,1.20
2019-02-25T16:28:01.288Z,1.12
2019-02-25T16:30:30.773Z,1.10
2019-02-25T16:33:00.106Z,1.60
2019-02-25T16:35:29.693Z,1.50
2019-02-25T16:37:59.892Z,1.27
2019-02-25T16:40:29.137Z,1.25
2019-02-25T16:42:59.754Z,1.50
2019-02-25T16:45:34.292Z,1.50
2019-02-25T16:47:58.044Z,1.20
2019-02-25T16:50:26.719Z,1.37
2019-02-25T16:52:55.036Z,1.40
2019-02-25T16:55:25.757Z,1.30
2019-02-25T17:00:29.394Z,1.52
2019-02-25T17:03:01.341Z,1.50
2019-02-25T17:05:27.584Z,1.70
2019-02-25T17:07:56.385Z,1.87
2019-02-25T17:10:27.089Z,1.95
2019-02-25T17:12:55.475Z,1.87
2019-02-25T17:15:26.291Z,2.15
2019-02-25T17:17:53.907Z,2.20
2019-02-25T17:20:22.977Z,1.70
2019-02-25T17:22:51.297Z,1.87
2019-02-25T17:25:19.524Z,2.10
2019-02-25T17:27:47.849Z,1.60
2019-02-25T17:30:24.072Z,1.40
2019-02-25T17:32:52.455Z,1.55
2019-02-25T17:35:23.552Z,1.52
2019-02-25T17:37:53.110Z,1.62
2019-02-25T17:40:21.344Z,1.52
2019-02-25T17:42:51.524Z,1.40
2019-02-25T17:45:29.453Z,1.32
2019-02-25T17:47:58.443Z,1.37
2019-02-25T17:50:27.144Z,1.32
2019-02-25T17:52:55.499Z,1.05
2019-02-25T17:55:27.294Z,1.47
2019-02-25T17:57:59.209Z,1.70
2019-02-25T18:00:39.578Z,1.98
2019-02-25T18:03:07.553Z,1.30
2019-02-25T18:05:38.082Z,1.25
2019-02-25T18:08:08.136Z,1.10
2019-02-25T18:10:37.003Z,1.40
2019-02-25T18:13:08.211Z,1.22
2019-02-25T18:15:35.196Z,1.40
2019-02-25T18:18:07.154Z,1.35
2019-02-25T18:20:33.753Z,1.70
2019-02-25T18:23:04.987Z,1.20
2019-02-25T18:25:32.977Z,1.23
2019-02-25T18:28:01.411Z,1.40
2019-02-25T18:30:32.314Z,1.90
2019-02-25T18:33:04.616Z,1.65
2019-02-25T18:35:31.152Z,1.82
2019-02-25T18:38:02.120Z,1.82
2019-02-25T18:40:30.441Z,2.08
2019-02-25T18:43:00.329Z,1.47
2019-02-25T18:45:28.730Z,1.80
2019-02-25T18:47:56.969Z,1.90
2019-02-25T18:50:26.847Z,1.70
2019-02-25T18:52:57.236Z,1.60
2019-02-25T18:55:27.108Z,1.82
2019-02-25T18:57:56.880Z,1.70
2019-02-25T19:00:35.340Z,1.52
2019-02-25T19:03:04.787Z,1.60
2019-02-25T19:05:33.473Z,1.40
2019-02-25T19:08:02.080Z,1.45
2019-02-25T19:10:30.368Z,1.40
2019-02-25T19:13:00.808Z,1.50
2019-02-25T19:15:29.018Z,1.57
2019-02-25T19:17:57.670Z,1.35
2019-02-25T19:20:26.578Z,1.32
2019-02-25T19:22:58.166Z,1.27
2019-02-25T19:25:25.758Z,1.65
2019-02-25T19:27:54.909Z,1.47
2019-02-25T19:30:24.822Z,1.55
2019-02-25T19:32:54.052Z,1.50
2019-02-25T19:35:25.803Z,1.20
2019-02-25T19:37:52.357Z,1.65
2019-02-25T19:40:24.723Z,1.35
2019-02-25T19:42:54.256Z,1.22
2019-02-25T19:45:23.503Z,1.20
2019-02-25T19:47:51.797Z,1.10
2019-02-25T19:50:22.541Z,1.52
2019-02-25T19:52:50.780Z,1.37
2019-02-25T19:55:20.986Z,1.25
2019-02-25T19:57:48.968Z,1.37
2019-02-25T20:00:24.976Z,1.40
2019-02-25T20:02:53.613Z,1.50
2019-02-25T20:05:24.024Z,1.30
2019-02-25T20:07:51.822Z,1.35
2019-02-25T20:10:20.136Z,1.80
2019-02-25T20:12:50.907Z,1.72
2019-02-25T20:15:24.919Z,1.77
2019-02-25T20:17:52.972Z,1.82
2019-02-25T20:20:21.201Z,1.55
2019-02-25T20:22:49.748Z,1.37
2019-02-25T20:25:19.363Z,1.20
2019-02-25T20:27:48.232Z,1.50
2019-02-25T20:30:19.636Z,1.37
2019-02-25T20:32:48.681Z,1.20
2019-02-25T20:35:19.761Z,1.40
2019-02-25T20:37:50.995Z,1.35
2019-02-25T20:40:21.223Z,1.30
2019-02-25T20:42:50.970Z,1.30
2019-02-25T20:45:32.615Z,1.40
2019-02-25T20:48:01.977Z,1.60
2019-02-25T20:50:30.325Z,1.35
2019-02-25T20:53:02.321Z,1.40
2019-02-25T20:55:29.348Z,1.42
2019-02-25T20:57:58.484Z,1.40
2019-02-25T21:00:26.888Z,1.60
2019-02-25T21:02:55.109Z,1.80
2019-02-25T21:05:25.277Z,1.87
2019-02-25T21:07:55.490Z,2.00
2019-02-25T21:10:24.890Z,1.60
2019-02-25T21:12:54.802Z,1.97
2019-02-25T21:15:24.373Z,2.17
2019-02-25T21:17:54.414Z,2.20
2019-02-25T21:20:24.136Z,2.30
2019-02-25T21:22:57.443Z,2.70
2019-02-25T21:25:26.406Z,2.13
2019-02-25T21:27:57.163Z,2.40
2019-02-25T21:30:23.814Z,2.10
2019-02-25T21:32:54.136Z,2.22
2019-02-25T21:35:25.467Z,2.30
2019-02-25T21:37:52.829Z,2.40
2019-02-25T21:40:25.053Z,2.55
2019-02-25T21:42:54.458Z,2.85
2019-02-25T21:45:25.150Z,3.47
2019-02-25T21:47:56.046Z,3.10
2019-02-25T21:50:26.332Z,3.25
2019-02-25T21:52:53.932Z,3.87
2019-02-25T21:55:23.767Z,3.67
2019-02-25T21:57:53.095Z,3.72
2019-02-25T22:00:26.997Z,4.45
2019-02-25T22:02:55.675Z,3.98
2019-02-25T22:05:24.168Z,3.70
2019-02-25T22:07:54.756Z,4.22
2019-02-25T22:10:22.643Z,3.93
2019-02-25T22:12:50.852Z,4.00
2019-02-25T22:15:20.347Z,3.95
2019-02-25T22:17:50.691Z,3.90
2019-02-25T22:20:22.102Z,3.65
2019-02-25T22:22:54.545Z,3.65
2019-02-25T22:25:21.564Z,3.65
2019-02-25T22:27:49.786Z,3.90
2019-02-25T22:30:18.530Z,3.50
2019-02-25T22:32:47.022Z,3.60
2019-02-25T22:35:15.395Z,3.05
2019-02-25T22:37:46.746Z,3.08
2019-02-25T22:40:16.906Z,2.80
2019-02-25T22:42:47.124Z,2.87
2019-02-25T22:45:19.093Z,3.50
2019-02-25T22:47:47.353Z,3.95
2019-02-25T22:50:15.904Z,4.33
2019-02-25T22:52:44.131Z,3.90
2019-02-25T22:55:15.291Z,3.67
2019-02-25T22:57:45.691Z,3.80
2019-02-25T23:00:22.711Z,4.12
2019-02-25T23:02:52.851Z,3.55
2019-02-25T23:05:23.275Z,3.20
2019-02-25T23:07:52.282Z,3.00
2019-02-25T23:10:22.370Z,3.67
2019-02-25T23:12:51.909Z,3.10
2019-02-25T23:15:20.983Z,3.35
2019-02-25T23:18:11.983Z,3.40
2019-02-25T23:20:39.443Z,3.50
2019-02-25T23:23:07.676Z,2.90
2019-02-25T23:25:36.133Z,2.87
2019-02-25T23:28:04.360Z,3.70
2019-02-25T23:30:32.576Z,3.50
2019-02-25T23:33:00.808Z,3.08
2019-02-25T23:35:29.455Z,3.42
2019-02-25T23:37:58.529Z,3.27
2019-02-25T23:40:31.237Z,2.93
2019-02-25T23:42:58.124Z,3.87
2019-02-25T23:45:26.340Z,3.83
2019-02-25T23:47:57.602Z,3.83
2019-02-25T23:50:25.766Z,4.10
2019-02-25T23:52:55.052Z,3.83
2019-02-25T23:55:24.954Z,3.50
2019-02-25T23:57:53.221Z,3.30
